WARM SPRINGS (USACE) (WRS)

Elevation: 440' · RUSSIAN R basin · Operator: US Army Corps of Engineers

Provisional data, subject to change.
Query executed Saturday at 13:45:11   clock

Select a sensor type for a plot of data.
Note: Reservoir Flows are daily averages.

Earlier

Date RES ELE    STORAGE    RES CHG    TOC STO    ABV TOC    OUTFLOW    INFLOW    PPT INC    TEMP MN    TEMP MX    EVP PAN   
 FEET   AF   AF   AF   AF   CFS   CFS   INCHES   DEG F   DEG F   INCHES  
07/31/2015 429.60 192707 -247 245000 -52293 104 -6 0.00 15 29 0.19
08/01/2015 429.49 192460 -247 245000 -52540 111 4 0.00 15 34 0.22
08/02/2015 429.37 192191 -269 245000 -52809 116 -2 0.00 14 32 0.23
08/03/2015 429.25 191922 -269 245000 -53078 116 -3 0.00 12 31 0.22
08/04/2015 429.13 191654 -268 245000 -53346 116 -12 0.00 11 24 0.09
08/05/2015 429.01 191385 -269 245000 -53615 116 -4 0.00 11 35 0.21
08/06/2015 428.89 191117 -268 245000 -53883 110 -8 0.00 11 37 0.23
08/07/2015 428.79 190894 -223 245000 -54106 101 4 0.00 14 32 0.20
08/08/2015 428.69 190671 -223 245000 -54329 94 -2 0.00 14 30 0.21
08/09/2015 428.59 190448 -223 245000 -54552 95 1 0.00 11 37 0.23
08/10/2015 428.48 190204 -244 245000 -54796 96 -10 0.00 12 35 0.23
08/11/2015 428.36 189937 -267 245000 -55063 99 -22 0.00 14 31 0.17
08/12/2015 428.27 189737 -200 245000 -55263 101 17 0.00 11 33 0.22
08/13/2015 428.16 189492 -245 245000 -55508 106 -2 0.00 11 33 0.21
08/14/2015 428.03 189204 -288 245000 -55796 108 -20 0.00 10 35 0.22
08/15/2015 427.92 188960 -244 245000 -56040 108 2 0.00 18 40 0.22
08/16/2015 427.81 188717 -243 245000 -56283 108 4 0.00 16 43 0.24
08/17/2015 427.71 188495 -222 245000 -56505 108 13 0.00 12 42 0.23
08/18/2015 427.59 188230 -265 245000 -56770 108 -10 0.00 13 31 0.20
08/19/2015 427.48 187987 -243 245000 -57013 107 -3 0.00 11 30 0.17
08/20/2015 427.38 187767 -220 245000 -57233 104 5 0.00 14 29 0.16
08/21/2015 427.28 187546 -221 245000 -57454 106 8 0.00 15 29 0.18
08/22/2015 427.17 187304 -242 245000 -57696 107 -2 0.00 14 30 0.18
08/23/2015 427.06 187062 -242 245000 -57938 109 -2 0.00 14 29 0.15
08/24/2015 426.96 186842 -220 245000 -58158 109 11 0.00 13 32 0.17
08/25/2015 426.85 186600 -242 245000 -58400 109 -1 0.00 12 33 0.16
08/26/2015 426.75 186380 -- 245000 -58620 109 12 0.00 13 36 0.18
08/27/2015 426.64 186139 -241 245000 -58861 108 1 0.00 11 40 0.19
08/28/2015 426.53 185898 -241 245000 -59102 108 -0 0.00 20 37 0.17
08/29/2015 -- -- -- -- -- -- -- -- -- -- --

Later | Latest

Warning! This data is preliminary and subject to revision.

Show WRS Map | Plot WRS Data | 1 Month WRS Data | Real-Time WRS Data | WRS Info